sensor_id;sensor_type;location;lat;lon;timestamp;P1;durP1;ratioP1;P2;durP2;ratioP2
8260;SDS011;64115;50.170;8.242;2023-06-10T00:01:28;5.10;;;4.73;;
8260;SDS011;64115;50.170;8.242;2023-06-10T00:03:55;5.23;;;4.83;;
8260;SDS011;64115;50.170;8.242;2023-06-10T00:06:22;5.27;;;4.77;;
8260;SDS011;64115;50.170;8.242;2023-06-10T00:08:49;5.40;;;5.00;;
8260;SDS011;64115;50.170;8.242;2023-06-10T00:11:17;5.47;;;4.80;;
8260;SDS011;64115;50.170;8.242;2023-06-10T00:13:45;5.17;;;4.77;;
8260;SDS011;64115;50.170;8.242;2023-06-10T00:16:12;4.83;;;4.30;;
8260;SDS011;64115;50.170;8.242;2023-06-10T00:18:38;5.47;;;4.77;;
8260;SDS011;64115;50.170;8.242;2023-06-10T00:21:05;4.87;;;4.47;;
8260;SDS011;64115;50.170;8.242;2023-06-10T00:23:32;5.03;;;4.63;;
8260;SDS011;64115;50.170;8.242;2023-06-10T00:26:02;5.60;;;5.10;;
8260;SDS011;64115;50.170;8.242;2023-06-10T00:28:31;4.60;;;4.30;;
8260;SDS011;64115;50.170;8.242;2023-06-10T00:30:57;5.10;;;4.70;;
8260;SDS011;64115;50.170;8.242;2023-06-10T00:33:24;5.20;;;4.63;;
8260;SDS011;64115;50.170;8.242;2023-06-10T00:35:51;4.70;;;4.30;;
8260;SDS011;64115;50.170;8.242;2023-06-10T00:38:18;5.10;;;4.60;;
8260;SDS011;64115;50.170;8.242;2023-06-10T00:40:45;5.27;;;4.57;;
8260;SDS011;64115;50.170;8.242;2023-06-10T00:43:12;5.10;;;4.70;;
8260;SDS011;64115;50.170;8.242;2023-06-10T00:45:40;5.03;;;4.53;;
8260;SDS011;64115;50.170;8.242;2023-06-10T00:48:07;5.23;;;4.73;;
8260;SDS011;64115;50.170;8.242;2023-06-10T00:50:35;5.10;;;4.60;;
8260;SDS011;64115;50.170;8.242;2023-06-10T00:53:04;4.70;;;4.30;;
8260;SDS011;64115;50.170;8.242;2023-06-10T00:55:32;5.00;;;4.60;;
8260;SDS011;64115;50.170;8.242;2023-06-10T00:57:59;4.67;;;4.27;;
8260;SDS011;64115;50.170;8.242;2023-06-10T01:00:26;4.47;;;4.07;;
8260;SDS011;64115;50.170;8.242;2023-06-10T01:02:54;6.20;;;4.50;;
8260;SDS011;64115;50.170;8.242;2023-06-10T01:05:22;4.83;;;4.43;;
8260;SDS011;64115;50.170;8.242;2023-06-10T01:07:50;5.03;;;4.63;;
8260;SDS011;64115;50.170;8.242;2023-06-10T01:10:29;4.70;;;4.30;;
8260;SDS011;64115;50.170;8.242;2023-06-10T01:13:00;5.23;;;4.73;;
8260;SDS011;64115;50.170;8.242;2023-06-10T01:15:28;5.33;;;4.83;;
8260;SDS011;64115;50.170;8.242;2023-06-10T01:17:58;5.13;;;4.70;;
8260;SDS011;64115;50.170;8.242;2023-06-10T01:20:27;4.93;;;4.37;;
8260;SDS011;64115;50.170;8.242;2023-06-10T01:22:56;4.77;;;4.37;;
8260;SDS011;64115;50.170;8.242;2023-06-10T01:25:24;4.53;;;4.17;;
8260;SDS011;64115;50.170;8.242;2023-06-10T01:27:54;5.20;;;4.43;;
8260;SDS011;64115;50.170;8.242;2023-06-10T01:30:29;4.80;;;4.40;;
8260;SDS011;64115;50.170;8.242;2023-06-10T01:33:02;4.90;;;4.40;;
8260;SDS011;64115;50.170;8.242;2023-06-10T01:35:31;5.00;;;4.20;;
8260;SDS011;64115;50.170;8.242;2023-06-10T01:38:00;4.93;;;4.53;;
8260;SDS011;64115;50.170;8.242;2023-06-10T01:40:28;5.10;;;4.60;;
8260;SDS011;64115;50.170;8.242;2023-06-10T01:42:57;4.77;;;4.47;;
8260;SDS011;64115;50.170;8.242;2023-06-10T01:45:24;4.70;;;4.30;;
8260;SDS011;64115;50.170;8.242;2023-06-10T01:47:50;6.73;;;4.70;;
8260;SDS011;64115;50.170;8.242;2023-06-10T01:50:17;4.77;;;4.40;;
8260;SDS011;64115;50.170;8.242;2023-06-10T01:52:45;4.67;;;4.27;;
8260;SDS011;64115;50.170;8.242;2023-06-10T01:55:13;4.63;;;4.23;;
8260;SDS011;64115;50.170;8.242;2023-06-10T01:57:40;4.60;;;4.20;;
8260;SDS011;64115;50.170;8.242;2023-06-10T02:00:07;4.73;;;4.20;;
8260;SDS011;64115;50.170;8.242;2023-06-10T02:02:35;4.20;;;3.80;;
8260;SDS011;64115;50.170;8.242;2023-06-10T02:05:02;5.03;;;4.23;;
8260;SDS011;64115;50.170;8.242;2023-06-10T02:07:30;4.80;;;4.40;;
8260;SDS011;64115;50.170;8.242;2023-06-10T02:09:57;5.33;;;3.80;;
8260;SDS011;64115;50.170;8.242;2023-06-10T02:12:25;4.47;;;4.07;;
8260;SDS011;64115;50.170;8.242;2023-06-10T02:14:52;4.53;;;4.23;;
8260;SDS011;64115;50.170;8.242;2023-06-10T02:17:19;4.10;;;3.80;;
8260;SDS011;64115;50.170;8.242;2023-06-10T02:19:45;4.33;;;4.03;;
8260;SDS011;64115;50.170;8.242;2023-06-10T02:22:19;4.00;;;3.70;;
8260;SDS011;64115;50.170;8.242;2023-06-10T02:24:46;6.67;;;4.70;;
8260;SDS011;64115;50.170;8.242;2023-06-10T02:27:14;4.30;;;4.00;;
8260;SDS011;64115;50.170;8.242;2023-06-10T02:29:42;4.67;;;4.27;;
8260;SDS011;64115;50.170;8.242;2023-06-10T02:32:09;4.53;;;4.17;;
8260;SDS011;64115;50.170;8.242;2023-06-10T02:34:36;4.50;;;4.10;;
8260;SDS011;64115;50.170;8.242;2023-06-10T02:37:03;5.83;;;4.60;;
8260;SDS011;64115;50.170;8.242;2023-06-10T02:39:30;4.20;;;3.90;;
8260;SDS011;64115;50.170;8.242;2023-06-10T02:41:57;4.30;;;3.90;;
8260;SDS011;64115;50.170;8.242;2023-06-10T02:44:24;4.50;;;4.20;;
8260;SDS011;64115;50.170;8.242;2023-06-10T02:46:52;4.97;;;4.07;;
8260;SDS011;64115;50.170;8.242;2023-06-10T02:49:19;4.70;;;4.30;;
8260;SDS011;64115;50.170;8.242;2023-06-10T02:51:46;4.40;;;4.10;;
8260;SDS011;64115;50.170;8.242;2023-06-10T02:54:13;4.53;;;4.03;;
8260;SDS011;64115;50.170;8.242;2023-06-10T02:56:41;5.20;;;4.27;;
8260;SDS011;64115;50.170;8.242;2023-06-10T02:59:08;4.57;;;4.17;;
8260;SDS011;64115;50.170;8.242;2023-06-10T03:01:35;4.53;;;4.13;;
8260;SDS011;64115;50.170;8.242;2023-06-10T03:04:04;4.50;;;4.10;;
8260;SDS011;64115;50.170;8.242;2023-06-10T03:06:31;7.90;;;4.40;;
8260;SDS011;64115;50.170;8.242;2023-06-10T03:09:00;5.70;;;4.17;;
8260;SDS011;64115;50.170;8.242;2023-06-10T03:11:27;4.80;;;4.40;;
8260;SDS011;64115;50.170;8.242;2023-06-10T03:13:54;4.67;;;4.20;;
8260;SDS011;64115;50.170;8.242;2023-06-10T03:16:22;4.77;;;4.30;;
8260;SDS011;64115;50.170;8.242;2023-06-10T03:18:50;4.70;;;4.30;;
8260;SDS011;64115;50.170;8.242;2023-06-10T03:21:19;4.33;;;4.00;;
8260;SDS011;64115;50.170;8.242;2023-06-10T03:23:46;4.43;;;4.07;;
8260;SDS011;64115;50.170;8.242;2023-06-10T03:26:13;4.40;;;4.10;;
8260;SDS011;64115;50.170;8.242;2023-06-10T03:28:40;5.90;;;3.83;;
8260;SDS011;64115;50.170;8.242;2023-06-10T03:31:07;4.70;;;4.30;;
8260;SDS011;64115;50.170;8.242;2023-06-10T03:33:34;4.53;;;4.23;;
8260;SDS011;64115;50.170;8.242;2023-06-10T03:36:02;4.70;;;4.30;;
8260;SDS011;64115;50.170;8.242;2023-06-10T03:38:31;4.70;;;4.20;;
8260;SDS011;64115;50.170;8.242;2023-06-10T03:40:58;4.30;;;4.00;;
8260;SDS011;64115;50.170;8.242;2023-06-10T03:43:25;4.90;;;4.47;;
8260;SDS011;64115;50.170;8.242;2023-06-10T03:45:52;4.60;;;4.23;;
8260;SDS011;64115;50.170;8.242;2023-06-10T03:48:19;4.80;;;4.40;;
8260;SDS011;64115;50.170;8.242;2023-06-10T03:50:46;4.73;;;4.40;;
8260;SDS011;64115;50.170;8.242;2023-06-10T03:53:15;4.53;;;4.20;;
8260;SDS011;64115;50.170;8.242;2023-06-10T03:55:44;4.90;;;4.60;;
8260;SDS011;64115;50.170;8.242;2023-06-10T03:58:11;4.90;;;4.40;;
8260;SDS011;64115;50.170;8.242;2023-06-10T04:00:39;4.43;;;4.10;;
8260;SDS011;64115;50.170;8.242;2023-06-10T04:03:07;4.40;;;4.03;;
8260;SDS011;64115;50.170;8.242;2023-06-10T04:05:39;4.60;;;4.30;;
8260;SDS011;64115;50.170;8.242;2023-06-10T04:08:07;4.60;;;4.20;;
8260;SDS011;64115;50.170;8.242;2023-06-10T04:10:34;5.33;;;4.20;;
8260;SDS011;64115;50.170;8.242;2023-06-10T04:13:02;4.93;;;4.33;;
8260;SDS011;64115;50.170;8.242;2023-06-10T04:15:29;4.53;;;4.23;;
8260;SDS011;64115;50.170;8.242;2023-06-10T04:17:57;5.47;;;4.87;;
8260;SDS011;64115;50.170;8.242;2023-06-10T04:20:25;4.90;;;4.50;;
8260;SDS011;64115;50.170;8.242;2023-06-10T04:22:51;5.20;;;4.80;;
8260;SDS011;64115;50.170;8.242;2023-06-10T04:25:18;5.10;;;4.50;;
8260;SDS011;64115;50.170;8.242;2023-06-10T04:27:45;5.67;;;4.60;;
8260;SDS011;64115;50.170;8.242;2023-06-10T04:30:14;5.23;;;4.80;;
8260;SDS011;64115;50.170;8.242;2023-06-10T04:32:41;5.13;;;4.73;;
8260;SDS011;64115;50.170;8.242;2023-06-10T04:35:10;5.00;;;4.70;;
8260;SDS011;64115;50.170;8.242;2023-06-10T04:37:37;5.00;;;4.60;;
8260;SDS011;64115;50.170;8.242;2023-06-10T04:40:05;5.57;;;5.07;;
8260;SDS011;64115;50.170;8.242;2023-06-10T04:42:33;5.60;;;5.10;;
8260;SDS011;64115;50.170;8.242;2023-06-10T04:44:59;5.00;;;4.60;;
8260;SDS011;64115;50.170;8.242;2023-06-10T04:47:28;4.90;;;4.60;;
8260;SDS011;64115;50.170;8.242;2023-06-10T04:49:58;5.00;;;4.60;;
8260;SDS011;64115;50.170;8.242;2023-06-10T04:52:25;5.33;;;4.93;;
8260;SDS011;64115;50.170;8.242;2023-06-10T04:54:52;5.43;;;4.97;;
8260;SDS011;64115;50.170;8.242;2023-06-10T04:57:19;4.90;;;4.60;;
8260;SDS011;64115;50.170;8.242;2023-06-10T04:59:46;9.23;;;5.00;;
8260;SDS011;64115;50.170;8.242;2023-06-10T05:02:14;4.73;;;4.33;;
8260;SDS011;64115;50.170;8.242;2023-06-10T05:04:42;5.43;;;4.97;;
8260;SDS011;64115;50.170;8.242;2023-06-10T05:07:09;5.10;;;4.60;;
8260;SDS011;64115;50.170;8.242;2023-06-10T05:09:36;5.33;;;4.83;;
8260;SDS011;64115;50.170;8.242;2023-06-10T05:12:03;5.27;;;4.77;;
8260;SDS011;64115;50.170;8.242;2023-06-10T05:14:30;4.80;;;4.30;;
8260;SDS011;64115;50.170;8.242;2023-06-10T05:16:57;5.87;;;5.37;;
8260;SDS011;64115;50.170;8.242;2023-06-10T05:19:24;5.20;;;4.80;;
8260;SDS011;64115;50.170;8.242;2023-06-10T05:21:53;5.30;;;4.87;;
8260;SDS011;64115;50.170;8.242;2023-06-10T05:24:20;5.90;;;5.40;;
8260;SDS011;64115;50.170;8.242;2023-06-10T05:26:48;6.13;;;5.63;;
8260;SDS011;64115;50.170;8.242;2023-06-10T05:29:15;5.87;;;5.37;;
8260;SDS011;64115;50.170;8.242;2023-06-10T05:31:42;8.13;;;5.60;;
8260;SDS011;64115;50.170;8.242;2023-06-10T05:34:09;5.80;;;5.30;;
8260;SDS011;64115;50.170;8.242;2023-06-10T05:36:36;5.70;;;5.17;;
8260;SDS011;64115;50.170;8.242;2023-06-10T05:39:04;8.93;;;5.57;;
8260;SDS011;64115;50.170;8.242;2023-06-10T05:41:31;5.90;;;5.40;;
8260;SDS011;64115;50.170;8.242;2023-06-10T05:43:58;6.00;;;5.50;;
8260;SDS011;64115;50.170;8.242;2023-06-10T05:46:25;5.60;;;5.20;;
8260;SDS011;64115;50.170;8.242;2023-06-10T05:48:52;5.90;;;5.40;;
8260;SDS011;64115;50.170;8.242;2023-06-10T05:51:19;5.77;;;5.30;;
8260;SDS011;64115;50.170;8.242;2023-06-10T05:53:46;6.00;;;5.57;;
8260;SDS011;64115;50.170;8.242;2023-06-10T05:56:14;5.57;;;5.07;;
8260;SDS011;64115;50.170;8.242;2023-06-10T05:58:41;6.20;;;5.70;;
8260;SDS011;64115;50.170;8.242;2023-06-10T06:01:08;5.90;;;5.40;;
8260;SDS011;64115;50.170;8.242;2023-06-10T06:03:35;5.60;;;5.20;;
8260;SDS011;64115;50.170;8.242;2023-06-10T06:06:02;5.83;;;5.40;;
8260;SDS011;64115;50.170;8.242;2023-06-10T06:08:29;6.33;;;5.80;;
8260;SDS011;64115;50.170;8.242;2023-06-10T06:10:56;6.93;;;5.40;;
8260;SDS011;64115;50.170;8.242;2023-06-10T06:13:25;5.80;;;5.33;;
8260;SDS011;64115;50.170;8.242;2023-06-10T06:15:51;6.50;;;5.70;;
8260;SDS011;64115;50.170;8.242;2023-06-10T06:18:18;5.97;;;5.50;;
8260;SDS011;64115;50.170;8.242;2023-06-10T06:20:45;5.90;;;5.40;;
8260;SDS011;64115;50.170;8.242;2023-06-10T06:23:12;5.80;;;5.30;;
8260;SDS011;64115;50.170;8.242;2023-06-10T06:25:39;5.83;;;5.27;;
8260;SDS011;64115;50.170;8.242;2023-06-10T06:28:06;5.30;;;4.90;;
8260;SDS011;64115;50.170;8.242;2023-06-10T06:30:35;5.23;;;4.90;;
8260;SDS011;64115;50.170;8.242;2023-06-10T06:33:02;4.70;;;4.30;;
8260;SDS011;64115;50.170;8.242;2023-06-10T06:35:30;5.43;;;4.93;;
8260;SDS011;64115;50.170;8.242;2023-06-10T06:37:57;5.00;;;4.50;;
8260;SDS011;64115;50.170;8.242;2023-06-10T06:40:24;4.97;;;4.57;;
8260;SDS011;64115;50.170;8.242;2023-06-10T06:42:51;5.80;;;5.20;;
8260;SDS011;64115;50.170;8.242;2023-06-10T06:45:18;5.20;;;4.90;;
8260;SDS011;64115;50.170;8.242;2023-06-10T06:47:47;5.33;;;4.90;;
8260;SDS011;64115;50.170;8.242;2023-06-10T06:50:14;5.40;;;5.00;;
8260;SDS011;64115;50.170;8.242;2023-06-10T06:52:41;5.00;;;4.70;;
8260;SDS011;64115;50.170;8.242;2023-06-10T06:55:08;5.07;;;4.60;;
8260;SDS011;64115;50.170;8.242;2023-06-10T06:57:35;5.17;;;4.77;;
8260;SDS011;64115;50.170;8.242;2023-06-10T07:00:03;4.63;;;4.33;;
8260;SDS011;64115;50.170;8.242;2023-06-10T07:02:30;5.80;;;5.30;;
8260;SDS011;64115;50.170;8.242;2023-06-10T07:04:59;5.17;;;4.77;;
8260;SDS011;64115;50.170;8.242;2023-06-10T07:07:26;5.53;;;5.10;;
8260;SDS011;64115;50.170;8.242;2023-06-10T07:09:53;5.37;;;4.90;;
8260;SDS011;64115;50.170;8.242;2023-06-10T07:12:20;5.40;;;4.90;;
8260;SDS011;64115;50.170;8.242;2023-06-10T07:14:49;5.30;;;4.67;;
8260;SDS011;64115;50.170;8.242;2023-06-10T07:17:16;5.00;;;4.60;;
8260;SDS011;64115;50.170;8.242;2023-06-10T07:19:43;5.10;;;4.77;;
8260;SDS011;64115;50.170;8.242;2023-06-10T07:22:11;5.40;;;4.90;;
8260;SDS011;64115;50.170;8.242;2023-06-10T07:24:38;6.50;;;5.27;;
8260;SDS011;64115;50.170;8.242;2023-06-10T07:27:05;5.00;;;4.60;;
8260;SDS011;64115;50.170;8.242;2023-06-10T07:29:33;5.10;;;4.70;;
8260;SDS011;64115;50.170;8.242;2023-06-10T07:32:00;5.40;;;4.87;;
8260;SDS011;64115;50.170;8.242;2023-06-10T07:34:28;5.40;;;5.00;;
8260;SDS011;64115;50.170;8.242;2023-06-10T07:36:55;5.23;;;4.83;;
8260;SDS011;64115;50.170;8.242;2023-06-10T07:39:23;5.67;;;5.10;;
8260;SDS011;64115;50.170;8.242;2023-06-10T07:41:50;5.67;;;5.03;;
8260;SDS011;64115;50.170;8.242;2023-06-10T07:44:18;5.00;;;4.70;;
8260;SDS011;64115;50.170;8.242;2023-06-10T07:46:46;4.93;;;4.60;;
8260;SDS011;64115;50.170;8.242;2023-06-10T07:49:13;5.17;;;4.77;;
8260;SDS011;64115;50.170;8.242;2023-06-10T07:51:40;5.43;;;5.03;;
8260;SDS011;64115;50.170;8.242;2023-06-10T07:54:07;5.60;;;5.13;;
8260;SDS011;64115;50.170;8.242;2023-06-10T07:56:35;4.90;;;4.60;;
8260;SDS011;64115;50.170;8.242;2023-06-10T07:59:02;5.13;;;4.73;;
8260;SDS011;64115;50.170;8.242;2023-06-10T08:01:29;5.57;;;5.07;;
8260;SDS011;64115;50.170;8.242;2023-06-10T08:03:56;5.43;;;5.03;;
8260;SDS011;64115;50.170;8.242;2023-06-10T08:06:24;5.60;;;5.20;;
8260;SDS011;64115;50.170;8.242;2023-06-10T08:08:51;5.60;;;5.00;;
8260;SDS011;64115;50.170;8.242;2023-06-10T08:11:18;6.37;;;5.10;;
8260;SDS011;64115;50.170;8.242;2023-06-10T08:13:47;4.87;;;4.47;;
8260;SDS011;64115;50.170;8.242;2023-06-10T08:16:13;5.70;;;4.43;;
8260;SDS011;64115;50.170;8.242;2023-06-10T08:18:40;6.73;;;4.77;;
8260;SDS011;64115;50.170;8.242;2023-06-10T08:21:07;5.70;;;4.70;;
8260;SDS011;64115;50.170;8.242;2023-06-10T08:23:34;5.67;;;5.17;;
8260;SDS011;64115;50.170;8.242;2023-06-10T08:26:01;5.30;;;4.90;;
8260;SDS011;64115;50.170;8.242;2023-06-10T08:28:29;5.50;;;5.00;;
8260;SDS011;64115;50.170;8.242;2023-06-10T08:30:59;5.33;;;4.93;;
8260;SDS011;64115;50.170;8.242;2023-06-10T08:33:27;4.77;;;4.43;;
8260;SDS011;64115;50.170;8.242;2023-06-10T08:35:55;4.67;;;4.33;;
8260;SDS011;64115;50.170;8.242;2023-06-10T08:38:22;5.10;;;4.43;;
8260;SDS011;64115;50.170;8.242;2023-06-10T08:40:49;5.60;;;4.40;;
8260;SDS011;64115;50.170;8.242;2023-06-10T08:43:20;5.27;;;4.70;;
8260;SDS011;64115;50.170;8.242;2023-06-10T08:45:50;4.93;;;4.63;;
8260;SDS011;64115;50.170;8.242;2023-06-10T08:48:22;4.57;;;3.97;;
8260;SDS011;64115;50.170;8.242;2023-06-10T08:50:51;4.90;;;4.43;;
8260;SDS011;64115;50.170;8.242;2023-06-10T08:53:18;4.53;;;4.23;;
8260;SDS011;64115;50.170;8.242;2023-06-10T08:55:48;5.03;;;4.50;;
8260;SDS011;64115;50.170;8.242;2023-06-10T08:58:17;4.70;;;4.40;;
8260;SDS011;64115;50.170;8.242;2023-06-10T09:00:45;4.97;;;4.67;;
8260;SDS011;64115;50.170;8.242;2023-06-10T09:03:12;4.70;;;4.40;;
8260;SDS011;64115;50.170;8.242;2023-06-10T09:05:41;4.93;;;4.63;;
8260;SDS011;64115;50.170;8.242;2023-06-10T09:08:08;4.90;;;4.47;;
8260;SDS011;64115;50.170;8.242;2023-06-10T09:10:36;5.20;;;4.77;;
8260;SDS011;64115;50.170;8.242;2023-06-10T09:13:03;4.97;;;4.07;;
8260;SDS011;64115;50.170;8.242;2023-06-10T09:15:30;4.83;;;4.37;;
8260;SDS011;64115;50.170;8.242;2023-06-10T09:17:56;5.03;;;4.53;;
8260;SDS011;64115;50.170;8.242;2023-06-10T09:20:25;4.33;;;4.03;;
8260;SDS011;64115;50.170;8.242;2023-06-10T09:22:53;4.33;;;3.93;;
8260;SDS011;64115;50.170;8.242;2023-06-10T09:25:20;5.80;;;4.67;;
8260;SDS011;64115;50.170;8.242;2023-06-10T09:28:02;5.23;;;4.83;;
8260;SDS011;64115;50.170;8.242;2023-06-10T09:30:30;4.10;;;3.90;;
8260;SDS011;64115;50.170;8.242;2023-06-10T09:32:59;4.20;;;3.87;;
8260;SDS011;64115;50.170;8.242;2023-06-10T09:35:27;3.60;;;3.37;;
8260;SDS011;64115;50.170;8.242;2023-06-10T09:37:56;4.30;;;3.90;;
8260;SDS011;64115;50.170;8.242;2023-06-10T09:40:24;4.47;;;3.60;;
8260;SDS011;64115;50.170;8.242;2023-06-10T09:42:53;4.30;;;3.90;;
8260;SDS011;64115;50.170;8.242;2023-06-10T09:45:21;3.63;;;3.43;;
8260;SDS011;64115;50.170;8.242;2023-06-10T09:47:51;3.83;;;3.43;;
8260;SDS011;64115;50.170;8.242;2023-06-10T09:50:19;3.87;;;3.50;;
8260;SDS011;64115;50.170;8.242;2023-06-10T09:52:46;4.13;;;3.73;;
8260;SDS011;64115;50.170;8.242;2023-06-10T09:55:16;4.47;;;3.77;;
8260;SDS011;64115;50.170;8.242;2023-06-10T09:57:44;4.13;;;3.70;;
8260;SDS011;64115;50.170;8.242;2023-06-10T10:00:15;3.67;;;3.47;;
8260;SDS011;64115;50.170;8.242;2023-06-10T10:02:45;4.10;;;3.70;;
8260;SDS011;64115;50.170;8.242;2023-06-10T10:05:14;3.77;;;3.50;;
8260;SDS011;64115;50.170;8.242;2023-06-10T10:07:41;4.07;;;3.77;;
8260;SDS011;64115;50.170;8.242;2023-06-10T10:10:09;4.23;;;3.83;;
8260;SDS011;64115;50.170;8.242;2023-06-10T10:12:38;6.20;;;3.87;;
8260;SDS011;64115;50.170;8.242;2023-06-10T10:15:07;5.27;;;3.67;;
8260;SDS011;64115;50.170;8.242;2023-06-10T10:17:35;4.37;;;3.80;;
8260;SDS011;64115;50.170;8.242;2023-06-10T10:20:06;5.13;;;3.47;;
8260;SDS011;64115;50.170;8.242;2023-06-10T10:22:39;5.27;;;3.70;;
8260;SDS011;64115;50.170;8.242;2023-06-10T10:25:09;4.77;;;3.50;;
8260;SDS011;64115;50.170;8.242;2023-06-10T10:27:43;4.17;;;3.77;;
8260;SDS011;64115;50.170;8.242;2023-06-10T10:30:13;3.80;;;3.50;;
8260;SDS011;64115;50.170;8.242;2023-06-10T10:32:43;4.00;;;3.70;;
8260;SDS011;64115;50.170;8.242;2023-06-10T10:35:17;5.13;;;3.60;;
8260;SDS011;64115;50.170;8.242;2023-06-10T10:37:48;4.50;;;4.10;;
8260;SDS011;64115;50.170;8.242;2023-06-10T10:40:15;3.93;;;3.63;;
8260;SDS011;64115;50.170;8.242;2023-06-10T10:42:44;5.37;;;4.00;;
8260;SDS011;64115;50.170;8.242;2023-06-10T10:45:11;4.00;;;3.70;;
8260;SDS011;64115;50.170;8.242;2023-06-10T10:47:38;4.07;;;3.60;;
8260;SDS011;64115;50.170;8.242;2023-06-10T10:50:15;4.30;;;3.90;;
8260;SDS011;64115;50.170;8.242;2023-06-10T10:52:50;3.93;;;3.73;;
8260;SDS011;64115;50.170;8.242;2023-06-10T10:55:19;5.87;;;3.40;;
8260;SDS011;64115;50.170;8.242;2023-06-10T10:57:54;3.83;;;3.63;;
8260;SDS011;64115;50.170;8.242;2023-06-10T11:00:27;3.80;;;3.53;;
8260;SDS011;64115;50.170;8.242;2023-06-10T11:02:57;3.87;;;3.47;;
8260;SDS011;64115;50.170;8.242;2023-06-10T11:05:32;3.57;;;3.33;;
8260;SDS011;64115;50.170;8.242;2023-06-10T11:08:03;4.37;;;4.00;;
8260;SDS011;64115;50.170;8.242;2023-06-10T11:10:31;5.23;;;3.80;;
8260;SDS011;64115;50.170;8.242;2023-06-10T11:13:00;4.20;;;3.80;;
8260;SDS011;64115;50.170;8.242;2023-06-10T11:15:31;3.70;;;3.40;;
8260;SDS011;64115;50.170;8.242;2023-06-10T11:20:55;3.97;;;3.47;;
8260;SDS011;64115;50.170;8.242;2023-06-10T11:23:33;4.13;;;3.33;;
8260;SDS011;64115;50.170;8.242;2023-06-10T11:26:11;5.17;;;3.17;;
8260;SDS011;64115;50.170;8.242;2023-06-10T11:28:41;3.77;;;3.40;;
8260;SDS011;64115;50.170;8.242;2023-06-10T11:31:28;3.60;;;3.30;;
8260;SDS011;64115;50.170;8.242;2023-06-10T11:33:56;3.70;;;3.40;;
8260;SDS011;64115;50.170;8.242;2023-06-10T11:36:25;3.67;;;3.40;;
8260;SDS011;64115;50.170;8.242;2023-06-10T11:38:53;3.73;;;3.43;;
8260;SDS011;64115;50.170;8.242;2023-06-10T11:41:22;3.60;;;3.30;;
8260;SDS011;64115;50.170;8.242;2023-06-10T11:43:52;3.47;;;3.27;;
8260;SDS011;64115;50.170;8.242;2023-06-10T11:46:19;3.77;;;3.40;;
8260;SDS011;64115;50.170;8.242;2023-06-10T11:48:49;4.10;;;3.80;;
8260;SDS011;64115;50.170;8.242;2023-06-10T11:51:16;3.83;;;3.63;;
8260;SDS011;64115;50.170;8.242;2023-06-10T11:53:43;3.77;;;3.50;;
8260;SDS011;64115;50.170;8.242;2023-06-10T11:56:11;4.27;;;3.90;;
8260;SDS011;64115;50.170;8.242;2023-06-10T11:58:38;4.37;;;4.07;;
8260;SDS011;64115;50.170;8.242;2023-06-10T12:01:11;3.43;;;3.23;;
8260;SDS011;64115;50.170;8.242;2023-06-10T12:03:46;4.33;;;3.97;;
8260;SDS011;64115;50.170;8.242;2023-06-10T12:06:12;3.50;;;3.20;;
8260;SDS011;64115;50.170;8.242;2023-06-10T12:08:41;3.33;;;3.13;;
8260;SDS011;64115;50.170;8.242;2023-06-10T12:11:08;3.40;;;3.20;;
8260;SDS011;64115;50.170;8.242;2023-06-10T12:13:36;3.37;;;3.00;;
8260;SDS011;64115;50.170;8.242;2023-06-10T12:16:07;3.60;;;3.30;;
8260;SDS011;64115;50.170;8.242;2023-06-10T12:18:36;3.20;;;3.00;;
8260;SDS011;64115;50.170;8.242;2023-06-10T12:21:03;2.90;;;2.70;;
8260;SDS011;64115;50.170;8.242;2023-06-10T12:26:33;3.93;;;3.10;;
8260;SDS011;64115;50.170;8.242;2023-06-10T12:29:02;3.10;;;2.90;;
8260;SDS011;64115;50.170;8.242;2023-06-10T12:31:51;6.00;;;3.43;;
8260;SDS011;64115;50.170;8.242;2023-06-10T12:34:34;4.07;;;3.30;;
8260;SDS011;64115;50.170;8.242;2023-06-10T12:37:02;3.67;;;3.30;;
8260;SDS011;64115;50.170;8.242;2023-06-10T12:39:31;3.50;;;3.20;;
8260;SDS011;64115;50.170;8.242;2023-06-10T12:41:58;3.53;;;2.80;;
8260;SDS011;64115;50.170;8.242;2023-06-10T12:44:32;3.40;;;3.10;;
8260;SDS011;64115;50.170;8.242;2023-06-10T12:47:01;3.53;;;3.33;;
8260;SDS011;64115;50.170;8.242;2023-06-10T12:49:34;3.70;;;3.50;;
8260;SDS011;64115;50.170;8.242;2023-06-10T12:52:01;3.77;;;3.23;;
8260;SDS011;64115;50.170;8.242;2023-06-10T12:54:29;3.47;;;3.27;;
8260;SDS011;64115;50.170;8.242;2023-06-10T12:56:56;4.03;;;3.10;;
8260;SDS011;64115;50.170;8.242;2023-06-10T12:59:26;3.40;;;3.20;;
8260;SDS011;64115;50.170;8.242;2023-06-10T13:01:53;3.40;;;3.20;;
8260;SDS011;64115;50.170;8.242;2023-06-10T13:04:21;3.03;;;2.83;;
8260;SDS011;64115;50.170;8.242;2023-06-10T13:06:49;6.27;;;3.30;;
8260;SDS011;64115;50.170;8.242;2023-06-10T13:09:16;4.13;;;3.40;;
8260;SDS011;64115;50.170;8.242;2023-06-10T13:11:43;4.27;;;3.50;;
8260;SDS011;64115;50.170;8.242;2023-06-10T13:14:10;3.60;;;3.30;;
8260;SDS011;64115;50.170;8.242;2023-06-10T13:16:38;4.03;;;3.53;;
8260;SDS011;64115;50.170;8.242;2023-06-10T13:19:05;4.10;;;3.30;;
8260;SDS011;64115;50.170;8.242;2023-06-10T13:21:32;3.70;;;3.40;;
8260;SDS011;64115;50.170;8.242;2023-06-10T13:24:01;4.13;;;3.40;;
8260;SDS011;64115;50.170;8.242;2023-06-10T13:26:28;4.07;;;3.60;;
8260;SDS011;64115;50.170;8.242;2023-06-10T13:28:55;3.73;;;3.47;;
8260;SDS011;64115;50.170;8.242;2023-06-10T13:31:22;4.20;;;3.80;;
8260;SDS011;64115;50.170;8.242;2023-06-10T13:33:49;4.47;;;3.77;;
8260;SDS011;64115;50.170;8.242;2023-06-10T13:36:16;4.00;;;3.70;;
8260;SDS011;64115;50.170;8.242;2023-06-10T13:38:43;3.80;;;3.60;;
8260;SDS011;64115;50.170;8.242;2023-06-10T13:41:11;4.00;;;3.70;;
8260;SDS011;64115;50.170;8.242;2023-06-10T13:43:38;4.37;;;3.70;;
8260;SDS011;64115;50.170;8.242;2023-06-10T13:46:05;3.93;;;3.63;;
8260;SDS011;64115;50.170;8.242;2023-06-10T13:48:32;3.87;;;3.57;;
8260;SDS011;64115;50.170;8.242;2023-06-10T13:51:00;5.10;;;3.53;;
8260;SDS011;64115;50.170;8.242;2023-06-10T13:53:27;4.80;;;3.53;;
8260;SDS011;64115;50.170;8.242;2023-06-10T13:55:54;3.93;;;3.63;;
8260;SDS011;64115;50.170;8.242;2023-06-10T13:58:22;3.63;;;3.40;;
8260;SDS011;64115;50.170;8.242;2023-06-10T14:00:49;4.90;;;3.67;;
8260;SDS011;64115;50.170;8.242;2023-06-10T14:03:16;4.60;;;4.00;;
8260;SDS011;64115;50.170;8.242;2023-06-10T14:05:43;4.40;;;4.00;;
8260;SDS011;64115;50.170;8.242;2023-06-10T14:08:10;4.20;;;3.90;;
8260;SDS011;64115;50.170;8.242;2023-06-10T14:10:37;4.13;;;3.83;;
8260;SDS011;64115;50.170;8.242;2023-06-10T14:13:04;4.27;;;3.97;;
8260;SDS011;64115;50.170;8.242;2023-06-10T14:15:32;4.33;;;3.87;;
8260;SDS011;64115;50.170;8.242;2023-06-10T14:17:59;4.77;;;3.87;;
8260;SDS011;64115;50.170;8.242;2023-06-10T14:20:26;4.10;;;3.80;;
8260;SDS011;64115;50.170;8.242;2023-06-10T14:22:56;4.37;;;3.97;;
8260;SDS011;64115;50.170;8.242;2023-06-10T14:25:24;4.30;;;4.00;;
8260;SDS011;64115;50.170;8.242;2023-06-10T14:27:51;4.33;;;3.87;;
8260;SDS011;64115;50.170;8.242;2023-06-10T14:30:18;3.90;;;3.70;;
8260;SDS011;64115;50.170;8.242;2023-06-10T14:32:47;3.83;;;3.57;;
8260;SDS011;64115;50.170;8.242;2023-06-10T14:35:14;4.17;;;3.87;;
8260;SDS011;64115;50.170;8.242;2023-06-10T14:37:41;4.40;;;4.00;;
8260;SDS011;64115;50.170;8.242;2023-06-10T14:40:08;4.27;;;3.87;;
8260;SDS011;64115;50.170;8.242;2023-06-10T14:42:35;3.87;;;3.67;;
8260;SDS011;64115;50.170;8.242;2023-06-10T14:45:03;4.27;;;3.87;;
8260;SDS011;64115;50.170;8.242;2023-06-10T14:47:30;4.57;;;4.10;;
8260;SDS011;64115;50.170;8.242;2023-06-10T14:49:59;4.50;;;4.10;;
8260;SDS011;64115;50.170;8.242;2023-06-10T14:52:26;4.90;;;4.37;;
8260;SDS011;64115;50.170;8.242;2023-06-10T14:54:53;4.53;;;4.13;;
8260;SDS011;64115;50.170;8.242;2023-06-10T14:57:20;5.60;;;4.17;;
8260;SDS011;64115;50.170;8.242;2023-06-10T14:59:47;4.67;;;4.10;;
8260;SDS011;64115;50.170;8.242;2023-06-10T15:02:13;6.33;;;4.80;;
8260;SDS011;64115;50.170;8.242;2023-06-10T15:04:40;6.13;;;4.40;;
8260;SDS011;64115;50.170;8.242;2023-06-10T15:07:09;4.30;;;4.00;;
8260;SDS011;64115;50.170;8.242;2023-06-10T15:09:35;4.53;;;4.10;;
8260;SDS011;64115;50.170;8.242;2023-06-10T15:12:02;4.43;;;4.10;;